createdAt,value
2023-12-07T12:39:23.126Z,2.70
2023-12-07T12:41:57.049Z,2.10
2023-12-07T12:44:34.511Z,1.80
2023-12-07T12:47:05.785Z,1.90
2023-12-07T12:49:38.441Z,1.93
2023-12-07T12:52:08.419Z,1.77
2023-12-07T12:54:38.283Z,1.50
2023-12-07T12:57:09.118Z,1.67
2023-12-07T12:59:38.104Z,1.60
2023-12-07T13:02:06.879Z,1.83
2023-12-07T13:07:07.317Z,1.67
2023-12-07T13:09:35.932Z,1.50
2023-12-07T13:12:06.502Z,1.43
2023-12-07T13:14:36.849Z,1.73
2023-12-07T13:17:06.040Z,1.80
2023-12-07T13:19:34.724Z,1.50
2023-12-07T13:22:04.268Z,1.43
2023-12-07T13:24:32.917Z,1.70
2023-12-07T13:27:01.763Z,1.50
2023-12-07T13:29:36.138Z,1.27
2023-12-07T13:32:06.454Z,1.50
2023-12-07T13:34:35.544Z,1.80
2023-12-07T13:37:04.267Z,1.73
2023-12-07T13:39:33.016Z,1.60
2023-12-07T13:42:04.105Z,1.67
2023-12-07T13:44:35.343Z,1.67
2023-12-07T13:47:04.795Z,1.57
2023-12-07T13:49:34.578Z,2.00
2023-12-07T13:52:07.276Z,1.70
2023-12-07T13:57:09.752Z,1.60
2023-12-07T13:59:40.675Z,1.87
2023-12-07T14:02:09.387Z,1.70
2023-12-07T14:04:38.975Z,1.70
2023-12-07T14:07:11.087Z,1.63
2023-12-07T14:09:49.843Z,1.60
2023-12-07T14:12:22.671Z,1.60
2023-12-07T14:14:52.594Z,1.60
2023-12-07T14:17:23.491Z,1.70
2023-12-07T14:20:05.331Z,1.93
2023-12-07T14:22:44.294Z,2.03
2023-12-07T14:25:12.851Z,1.77
2023-12-07T14:27:41.394Z,1.57
2023-12-07T14:30:12.406Z,1.80
2023-12-07T14:32:42.329Z,1.60
2023-12-07T14:35:11.119Z,2.07
2023-12-07T14:37:40.078Z,1.83
2023-12-07T14:40:09.760Z,2.43
2023-12-07T14:42:38.324Z,2.17
2023-12-07T14:45:07.345Z,1.50
2023-12-07T14:47:37.884Z,1.90
2023-12-07T14:50:06.987Z,2.00
2023-12-07T14:52:35.909Z,1.90
2023-12-07T14:55:05.177Z,2.23
2023-12-07T14:57:34.395Z,1.80
2023-12-07T15:00:05.382Z,2.10
2023-12-07T15:02:34.176Z,2.27
2023-12-07T15:05:05.456Z,2.10
2023-12-07T15:07:33.948Z,1.97
2023-12-07T15:10:04.159Z,2.10
2023-12-07T15:12:32.871Z,2.00
2023-12-07T15:15:01.567Z,2.07
2023-12-07T15:17:30.268Z,2.00
2023-12-07T15:19:59.046Z,1.87
2023-12-07T15:22:29.330Z,1.60
2023-12-07T15:24:58.559Z,1.97
2023-12-07T15:27:27.614Z,2.10
2023-12-07T15:29:56.152Z,1.70
2023-12-07T15:32:25.020Z,1.60
2023-12-07T15:34:53.804Z,1.97
2023-12-07T15:37:22.462Z,1.70
2023-12-07T15:39:53.040Z,1.77
2023-12-07T15:42:22.202Z,1.50
2023-12-07T15:44:50.758Z,2.03
2023-12-07T15:47:19.644Z,2.20
2023-12-07T15:49:48.323Z,2.70
2023-12-07T15:52:16.950Z,3.23
2023-12-07T15:54:45.653Z,3.67
2023-12-07T15:57:15.600Z,3.00
2023-12-07T15:59:44.518Z,2.80
2023-12-07T16:02:13.270Z,3.20
2023-12-07T16:04:42.288Z,2.80
2023-12-07T16:07:11.462Z,3.03
2023-12-07T16:09:42.055Z,2.57
2023-12-07T16:12:10.922Z,2.40
2023-12-07T16:14:41.015Z,2.30
2023-12-07T16:17:11.905Z,2.23
2023-12-07T16:19:40.558Z,2.53
2023-12-07T16:22:09.556Z,2.30
2023-12-07T16:24:38.123Z,2.30
2023-12-07T16:27:08.328Z,2.30
2023-12-07T16:29:38.349Z,1.93
2023-12-07T16:32:09.108Z,1.80
2023-12-07T16:34:37.840Z,2.07
2023-12-07T16:37:08.700Z,2.00
2023-12-07T16:39:37.353Z,2.23
2023-12-07T16:42:06.016Z,2.00
2023-12-07T16:44:34.594Z,2.20
2023-12-07T16:47:03.130Z,2.50
2023-12-07T16:49:33.062Z,2.50
2023-12-07T16:52:02.440Z,2.40
2023-12-07T16:54:31.196Z,2.20
2023-12-07T16:56:59.890Z,2.13
2023-12-07T16:59:28.516Z,1.90
2023-12-07T17:01:57.041Z,1.87
2023-12-07T17:04:27.073Z,1.83
2023-12-07T17:06:58.228Z,2.00
2023-12-07T17:09:28.443Z,1.87
2023-12-07T17:11:57.413Z,1.60
2023-12-07T17:14:26.596Z,1.97
2023-12-07T17:16:55.207Z,1.90
2023-12-07T17:19:24.116Z,1.70
2023-12-07T17:21:53.010Z,1.90
2023-12-07T17:24:23.579Z,1.77
2023-12-07T17:26:54.085Z,2.30
2023-12-07T17:29:24.429Z,1.90
2023-12-07T17:31:53.541Z,2.10
2023-12-07T17:34:22.725Z,2.50
2023-12-07T17:36:51.420Z,1.77
2023-12-07T17:39:20.150Z,2.10
2023-12-07T17:41:50.073Z,2.30
2023-12-07T17:44:18.637Z,2.63
2023-12-07T17:46:47.532Z,2.40
2023-12-07T17:49:16.333Z,2.37
2023-12-07T17:51:45.025Z,2.73
2023-12-07T17:54:16.027Z,2.20
2023-12-07T17:56:44.997Z,2.47
2023-12-07T17:59:15.144Z,2.33
2023-12-07T18:01:43.691Z,2.80
2023-12-07T18:04:12.371Z,2.50
2023-12-07T18:06:41.201Z,2.73
2023-12-07T18:09:09.997Z,2.27
2023-12-07T18:11:38.618Z,2.40
2023-12-07T18:14:07.202Z,2.90
2023-12-07T18:16:37.040Z,3.00
2023-12-07T18:19:06.263Z,2.27
2023-12-07T18:21:35.123Z,2.47
2023-12-07T18:24:02.747Z,2.70
2023-12-07T18:26:32.099Z,3.53
2023-12-07T18:29:00.739Z,3.10
2023-12-07T18:31:29.289Z,3.33
2023-12-07T18:33:59.376Z,3.60
2023-12-07T18:36:28.075Z,3.57
2023-12-07T18:38:56.635Z,4.23
2023-12-07T18:41:25.559Z,3.63
2023-12-07T18:43:54.124Z,3.03
2023-12-07T18:46:22.626Z,3.27
2023-12-07T18:48:51.234Z,3.23
2023-12-07T18:51:21.240Z,3.40
2023-12-07T18:53:49.791Z,3.00
2023-12-07T18:56:18.566Z,2.90
2023-12-07T18:58:47.116Z,2.40
2023-12-07T19:01:15.661Z,2.60
2023-12-07T19:03:48.957Z,1.70
2023-12-07T19:06:17.531Z,1.80
2023-12-07T19:08:48.451Z,2.17
2023-12-07T19:11:16.975Z,2.33
2023-12-07T19:13:45.456Z,2.50
2023-12-07T19:16:16.253Z,2.67
2023-12-07T19:18:45.154Z,2.63
2023-12-07T19:21:13.989Z,2.70
2023-12-07T19:23:42.526Z,2.40
2023-12-07T19:26:13.223Z,2.30
2023-12-07T19:28:41.937Z,2.43
2023-12-07T19:31:10.446Z,2.87
2023-12-07T19:33:39.897Z,2.80
2023-12-07T19:36:08.828Z,2.63
2023-12-07T19:38:37.404Z,2.60
2023-12-07T19:41:06.425Z,2.30
2023-12-07T19:43:37.191Z,2.60
2023-12-07T19:46:05.827Z,2.20
2023-12-07T19:48:34.521Z,2.60
2023-12-07T19:51:03.432Z,1.97
2023-12-07T19:53:32.037Z,2.47
2023-12-07T19:56:00.573Z,2.20
2023-12-07T19:58:29.138Z,1.90
2023-12-07T20:00:59.075Z,1.63
2023-12-07T20:03:27.739Z,2.03
2023-12-07T20:05:56.338Z,1.80
2023-12-07T20:08:24.982Z,1.70
2023-12-07T20:10:53.625Z,1.50
2023-12-07T20:13:22.133Z,1.93
2023-12-07T20:15:50.777Z,1.97
2023-12-07T20:18:21.052Z,2.13
2023-12-07T20:20:49.681Z,2.03
2023-12-07T20:23:18.213Z,1.67
2023-12-07T20:25:46.748Z,1.83
2023-12-07T20:28:15.293Z,1.53
2023-12-07T20:30:43.813Z,1.73
2023-12-07T20:33:12.415Z,2.30
2023-12-07T20:35:42.992Z,2.70
2023-12-07T20:38:12.007Z,2.30
2023-12-07T20:40:40.901Z,2.20
2023-12-07T20:43:09.932Z,2.43
2023-12-07T20:45:38.525Z,2.07
2023-12-07T20:48:07.267Z,2.17
2023-12-07T20:50:35.898Z,2.20
2023-12-07T20:53:05.809Z,1.47
2023-12-07T20:55:34.363Z,1.50
2023-12-07T20:58:02.866Z,1.67
2023-12-07T21:00:31.392Z,1.37
2023-12-07T21:03:01.243Z,1.60
2023-12-07T21:05:30.025Z,1.97
2023-12-07T21:07:58.656Z,1.50
2023-12-07T21:10:28.568Z,1.97
2023-12-07T21:12:58.686Z,1.80
2023-12-07T21:15:27.283Z,1.73
2023-12-07T21:17:55.982Z,1.60
2023-12-07T21:20:24.715Z,1.77
2023-12-07T21:22:53.213Z,1.50
2023-12-07T21:25:21.781Z,1.63
2023-12-07T21:27:51.721Z,1.67
2023-12-07T21:30:20.446Z,1.90
2023-12-07T21:32:49.210Z,1.93
2023-12-07T21:35:17.950Z,1.50
2023-12-07T21:37:46.495Z,2.00
2023-12-07T21:40:15.118Z,1.73
2023-12-07T21:42:43.632Z,1.50
2023-12-07T21:45:14.000Z,1.90
2023-12-07T21:47:42.716Z,2.00
2023-12-07T21:50:11.568Z,1.90
2023-12-07T21:52:41.751Z,2.17
2023-12-07T21:55:12.502Z,1.87
2023-12-07T21:57:41.024Z,1.70
2023-12-07T22:00:10.260Z,2.20
2023-12-07T22:02:41.066Z,1.90
2023-12-07T22:05:09.810Z,2.10
2023-12-07T22:07:38.489Z,2.07
2023-12-07T22:10:17.784Z,2.30
2023-12-07T22:12:51.429Z,1.97
2023-12-07T22:15:19.960Z,2.10
2023-12-07T22:17:49.864Z,2.23
2023-12-07T22:20:18.513Z,1.90
2023-12-07T22:22:47.045Z,2.13
2023-12-07T22:25:15.574Z,2.23
2023-12-07T22:27:44.069Z,2.17
2023-12-07T22:30:13.350Z,2.30
2023-12-07T22:32:42.025Z,2.00
2023-12-07T22:35:12.222Z,2.30
2023-12-07T22:37:40.814Z,2.47
2023-12-07T22:40:09.990Z,2.37
2023-12-07T22:42:38.550Z,2.43
2023-12-07T22:45:07.731Z,2.33
2023-12-07T22:47:36.420Z,1.80
2023-12-07T22:50:05.347Z,2.30
2023-12-07T22:52:35.201Z,2.03
2023-12-07T22:55:03.763Z,1.90
2023-12-07T22:57:33.368Z,2.33
2023-12-07T23:00:02.045Z,2.50
2023-12-07T23:02:30.946Z,2.30
2023-12-07T23:04:59.494Z,1.77
2023-12-07T23:07:29.051Z,1.63
2023-12-07T23:09:58.914Z,2.07
2023-12-07T23:12:27.530Z,2.20
2023-12-07T23:14:56.073Z,1.90
2023-12-07T23:17:24.888Z,2.40
2023-12-07T23:19:53.604Z,1.90
2023-12-07T23:22:22.103Z,2.27
2023-12-07T23:24:50.623Z,2.00
2023-12-07T23:27:20.910Z,2.23
2023-12-07T23:29:54.519Z,2.00
2023-12-07T23:32:23.848Z,2.53
2023-12-07T23:34:52.506Z,2.20
2023-12-07T23:37:21.066Z,2.27
2023-12-07T23:39:49.581Z,2.10
2023-12-07T23:42:18.103Z,1.97
2023-12-07T23:44:49.306Z,1.70
2023-12-07T23:47:18.216Z,1.60
2023-12-07T23:49:46.796Z,1.60
2023-12-07T23:52:15.414Z,1.60
2023-12-07T23:54:45.584Z,1.40
2023-12-07T23:57:14.537Z,1.80
2023-12-07T23:59:43.070Z,1.30
